Time;durP1;ratioP1;P1;durP2;ratioP2;P2;SDS_P1;SDS_P2;PMS_P1;PMS_P2;Temp;Humidity;BMP_temperature;BMP_pressure;BME280_temperature;BME280_humidity;BME280_pressure;Samples;Min_cycle;Max_cycle;Signal;HPM_P1;HPM_P2
2021/01/16 00:00:48;;;;;;;8.07;6.50;;;18.10;99.90;;;;;;5072821;28;20120;-37
2021/01/16 00:03:15;;;;;;;10.48;5.65;;;18.20;99.90;;;;;;5072811;28;20095;-37
2021/01/16 00:05:43;;;;;;;6.27;5.60;;;18.10;99.90;;;;;;5072640;28;20374;-36
2021/01/16 00:08:14;;;;;;;7.45;5.72;;;18.00;99.90;;;;;;5072846;28;20029;-36
2021/01/16 00:10:51;;;;;;;5.57;4.70;;;18.00;99.90;;;;;;5072675;28;20085;-36
2021/01/16 00:13:22;;;;;;;6.82;4.90;;;18.00;99.90;;;;;;5072670;28;20105;-36
2021/01/16 00:15:48;;;;;;;7.55;5.50;;;17.90;99.90;;;;;;5072349;28;20025;-36
2021/01/16 00:18:24;;;;;;;8.38;5.85;;;17.90;99.90;;;;;;5072654;28;20020;-35
2021/01/16 00:20:53;;;;;;;7.63;4.93;;;17.90;99.90;;;;;;5072611;28;20029;-35
2021/01/16 00:23:21;;;;;;;6.20;5.13;;;17.90;99.90;;;;;;5071731;28;20033;-36
2021/01/16 00:25:47;;;;;;;8.80;5.10;;;17.90;99.90;;;;;;5075612;28;20060;-36
2021/01/16 00:28:32;;;;;;;5.90;4.97;;;17.80;99.90;;;;;;5076579;28;20055;-36
2021/01/16 00:31:00;;;;;;;5.90;5.32;;;17.70;99.90;;;;;;5076711;28;20406;-34
2021/01/16 00:33:28;;;;;;;6.75;5.18;;;17.70;99.90;;;;;;5076084;28;20064;-34
2021/01/16 00:35:55;;;;;;;6.13;5.05;;;17.70;99.90;;;;;;5076005;28;20063;-35
2021/01/16 00:38:22;;;;;;;6.05;5.07;;;17.70;99.90;;;;;;5075023;28;20016;-34
2021/01/16 00:40:48;;;;;;;5.50;4.70;;;17.70;99.90;;;;;;5076102;28;20024;-34
2021/01/16 00:43:16;;;;;;;7.68;5.22;;;17.60;99.90;;;;;;5076304;28;20036;-35
2021/01/16 00:45:46;;;;;;;7.97;4.82;;;17.60;99.90;;;;;;5075928;28;20501;-34
2021/01/16 00:48:14;;;;;;;5.93;4.15;;;17.70;99.90;;;;;;5076490;28;20472;-34
2021/01/16 00:50:41;;;;;;;7.05;5.38;;;17.60;99.90;;;;;;5076092;28;20103;-34
2021/01/16 00:53:08;;;;;;;5.43;4.65;;;17.60;99.90;;;;;;5076147;28;20034;-34
2021/01/16 00:55:35;;;;;;;7.85;4.93;;;17.60;99.90;;;;;;5075582;28;20493;-34
2021/01/16 00:58:11;;;;;;;6.22;4.15;;;17.50;99.90;;;;;;5076075;28;20030;-35
2021/01/16 01:00:38;;;;;;;7.40;4.97;;;17.50;99.90;;;;;;5075825;28;20092;-35
2021/01/16 01:03:05;;;;;;;6.20;4.60;;;17.60;99.90;;;;;;5076196;28;20017;-35
2021/01/16 01:05:31;;;;;;;6.93;4.25;;;17.50;99.90;;;;;;5074893;28;20363;-35
2021/01/16 01:07:57;;;;;;;7.60;4.57;;;17.50;99.90;;;;;;5074321;28;20115;-35
2021/01/16 01:10:33;;;;;;;7.03;4.95;;;17.40;99.90;;;;;;5071281;28;20119;-35
2021/01/16 01:12:59;;;;;;;5.25;4.43;;;17.40;99.90;;;;;;5072706;28;20016;-35
2021/01/16 01:15:25;;;;;;;6.10;4.30;;;17.40;99.90;;;;;;5074262;28;20039;-35
2021/01/16 01:17:52;;;;;;;5.03;3.83;;;17.40;99.90;;;;;;5073903;28;20078;-34
2021/01/16 01:20:19;;;;;;;7.15;4.40;;;17.40;99.90;;;;;;5069358;28;20037;-34
2021/01/16 01:22:47;;;;;;;5.60;4.25;;;17.40;99.90;;;;;;5073394;28;20390;-34
2021/01/16 01:25:14;;;;;;;5.15;3.95;;;17.40;99.90;;;;;;5074597;28;20490;-35
2021/01/16 01:27:40;;;;;;;5.10;4.32;;;17.30;99.90;;;;;;5073254;28;20160;-35
2021/01/16 01:30:07;;;;;;;7.28;4.47;;;17.30;99.90;;;;;;5075526;28;20025;-35
2021/01/16 01:32:33;;;;;;;7.47;3.75;;;17.30;99.90;;;;;;5074937;28;20049;-35
2021/01/16 01:34:59;;;;;;;6.10;4.50;;;17.30;99.90;;;;;;5074990;28;20025;-35
2021/01/16 01:37:25;;;;;;;5.57;3.80;;;17.30;99.90;;;;;;5074887;28;20032;-35
2021/01/16 01:39:51;;;;;;;6.00;4.40;;;17.30;99.90;;;;;;5075145;28;20021;-35
2021/01/16 01:42:19;;;;;;;4.97;3.88;;;17.20;99.90;;;;;;5075036;28;20470;-35
2021/01/16 01:44:45;;;;;;;4.07;3.67;;;17.20;99.90;;;;;;5075254;28;20047;-35
2021/01/16 01:47:15;;;;;;;4.88;3.50;;;17.30;99.90;;;;;;5074918;28;20036;-35
2021/01/16 01:49:42;;;;;;;6.45;4.10;;;17.20;99.90;;;;;;5075144;28;20106;-35
2021/01/16 01:52:12;;;;;;;4.78;3.67;;;17.20;99.90;;;;;;5074661;28;20050;-35
2021/01/16 01:54:38;;;;;;;5.75;4.63;;;17.20;99.90;;;;;;5074969;28;20104;-35
2021/01/16 01:57:10;;;;;;;6.35;3.75;;;17.20;99.90;;;;;;5074634;28;20051;-35
2021/01/16 01:59:37;;;;;;;5.32;3.30;;;17.20;99.90;;;;;;5074948;28;20021;-35
2021/01/16 02:02:04;;;;;;;7.57;3.88;;;17.10;99.90;;;;;;5074332;28;20095;-35
2021/01/16 02:04:31;;;;;;;5.18;3.80;;;17.10;99.90;;;;;;5074784;28;20020;-35
2021/01/16 02:07:20;;;;;;;9.13;3.92;;;17.10;99.90;;;;;;5074103;28;20082;-35
2021/01/16 02:09:46;;;;;;;6.55;4.57;;;17.10;99.90;;;;;;5074257;28;20085;-35
2021/01/16 02:12:12;;;;;;;5.60;3.88;;;17.20;99.90;;;;;;5074027;28;20489;-35
2021/01/16 02:14:41;;;;;;;4.63;3.97;;;17.20;99.90;;;;;;5074590;28;20025;-35
2021/01/16 02:17:09;;;;;;;4.63;3.88;;;17.10;99.90;;;;;;5073869;28;20479;-35
2021/01/16 02:20:07;;;;;;;5.85;4.03;;;17.10;99.90;;;;;;5074278;28;20726;-35
2021/01/16 02:22:57;;;;;;;4.13;3.47;;;17.00;99.90;;;;;;5042557;28;20414;-38
2021/01/16 02:25:41;;;;;;;5.13;3.70;;;17.00;99.90;;;;;;5067148;28;20463;-35
2021/01/16 02:28:10;;;;;;;4.68;3.58;;;17.00;99.90;;;;;;5074305;28;20020;-35
2021/01/16 02:30:38;;;;;;;5.05;4.03;;;17.00;99.90;;;;;;5074202;28;20021;-35
2021/01/16 02:33:08;;;;;;;3.38;2.92;;;17.00;99.90;;;;;;5074208;28;20047;-35
2021/01/16 02:35:40;;;;;;;7.20;4.05;;;17.00;99.90;;;;;;5073887;28;20056;-35
2021/01/16 02:38:12;;;;;;;4.35;3.63;;;16.90;99.90;;;;;;5074037;28;20056;-35
2021/01/16 02:40:43;;;;;;;4.95;3.85;;;16.90;99.90;;;;;;5073890;28;20028;-35
2021/01/16 02:43:11;;;;;;;4.35;3.35;;;16.90;99.90;;;;;;5074299;28;20424;-35
2021/01/16 02:45:49;;;;;;;4.22;3.40;;;16.90;99.90;;;;;;5073641;28;20024;-35
2021/01/16 02:48:22;;;;;;;4.82;3.50;;;16.90;99.90;;;;;;5073311;28;20060;-35
2021/01/16 02:50:53;;;;;;;6.65;3.67;;;16.90;99.90;;;;;;5073726;28;20115;-36
2021/01/16 02:53:20;;;;;;;4.85;3.72;;;16.90;99.90;;;;;;5073940;28;20078;-35
2021/01/16 02:55:47;;;;;;;4.20;3.10;;;16.90;99.90;;;;;;5073703;28;20449;-35
2021/01/16 02:58:13;;;;;;;5.47;3.55;;;16.90;99.90;;;;;;5073889;28;20486;-35
2021/01/16 03:00:39;;;;;;;4.00;3.35;;;16.90;99.90;;;;;;5073581;28;20499;-35
2021/01/16 03:03:05;;;;;;;4.13;3.10;;;16.90;99.90;;;;;;5073721;28;20020;-35
2021/01/16 03:05:31;;;;;;;4.60;3.40;;;16.90;99.90;;;;;;5073559;28;20032;-36
2021/01/16 03:07:58;;;;;;;3.95;3.20;;;16.90;99.90;;;;;;5073792;28;20028;-35
2021/01/16 03:10:25;;;;;;;5.75;3.45;;;16.80;99.90;;;;;;5073646;28;20077;-35
2021/01/16 03:12:54;;;;;;;5.03;3.08;;;16.80;99.90;;;;;;5073620;28;20028;-35
2021/01/16 03:15:21;;;;;;;3.83;2.95;;;16.80;99.90;;;;;;5070848;28;20427;-35
2021/01/16 03:18:08;;;;;;;4.80;3.00;;;16.80;99.90;;;;;;5073454;28;20028;-35
2021/01/16 03:20:34;;;;;;;3.83;3.28;;;16.80;99.90;;;;;;5073669;28;20370;-36
2021/01/16 03:23:01;;;;;;;3.92;3.28;;;16.80;99.90;;;;;;5072852;28;20033;-35
2021/01/16 03:25:30;;;;;;;5.97;3.45;;;16.80;99.90;;;;;;5073386;28;20024;-35
2021/01/16 03:27:56;;;;;;;4.22;3.20;;;16.80;99.90;;;;;;5073203;28;20033;-36
2021/01/16 03:30:23;;;;;;;5.75;3.05;;;16.70;99.90;;;;;;5073239;28;20099;-35
2021/01/16 03:32:50;;;;;;;3.15;2.80;;;16.70;99.90;;;;;;5073112;28;20051;-35
2021/01/16 03:35:22;;;;;;;5.20;3.47;;;16.70;99.90;;;;;;5073617;28;20038;-35
2021/01/16 03:37:48;;;;;;;5.20;3.03;;;16.70;99.90;;;;;;5072957;28;20546;-35
2021/01/16 03:40:14;;;;;;;3.03;2.75;;;16.80;99.90;;;;;;5073179;28;20383;-35
2021/01/16 03:42:41;;;;;;;4.10;3.03;;;16.70;99.90;;;;;;5073212;28;20141;-36
2021/01/16 03:45:12;;;;;;;4.45;2.67;;;16.70;99.90;;;;;;5073390;28;20017;-35
2021/01/16 03:47:38;;;;;;;3.30;3.00;;;16.70;99.90;;;;;;5073271;28;20369;-35
2021/01/16 03:50:05;;;;;;;4.25;2.97;;;16.70;99.90;;;;;;5073252;28;20073;-36
2021/01/16 03:52:39;;;;;;;3.65;2.95;;;16.70;99.90;;;;;;5072793;28;20104;-35
2021/01/16 03:55:06;;;;;;;4.80;3.28;;;16.70;99.90;;;;;;5073364;28;20099;-35
2021/01/16 03:57:32;;;;;;;3.85;3.00;;;16.70;99.90;;;;;;5073198;28;20028;-36
2021/01/16 03:59:58;;;;;;;7.13;3.08;;;16.60;99.90;;;;;;5076509;28;20035;-35
2021/01/16 04:02:24;;;;;;;3.63;2.90;;;16.60;99.90;;;;;;5077135;28;20032;-35
2021/01/16 04:04:50;;;;;;;5.65;2.90;;;16.70;99.90;;;;;;5077080;28;20024;-35
2021/01/16 04:07:17;;;;;;;5.30;3.08;;;16.60;99.90;;;;;;5076786;28;20056;-35
2021/01/16 04:09:44;;;;;;;5.95;2.83;;;16.60;99.90;;;;;;5077359;28;20386;-35
2021/01/16 04:12:10;;;;;;;3.95;2.90;;;16.60;99.90;;;;;;5076691;28;20016;-35
2021/01/16 04:14:36;;;;;;;4.25;3.00;;;16.60;99.90;;;;;;5076863;28;20506;-35
2021/01/16 04:17:06;;;;;;;5.20;3.30;;;16.60;99.90;;;;;;5076530;28;20029;-35
2021/01/16 04:19:32;;;;;;;4.30;3.00;;;16.60;99.90;;;;;;5076813;28;20027;-35
2021/01/16 04:21:59;;;;;;;4.00;3.10;;;16.60;99.90;;;;;;5076384;28;20029;-35
2021/01/16 04:24:25;;;;;;;4.13;2.95;;;16.50;99.90;;;;;;5076992;28;20056;-35
2021/01/16 04:26:51;;;;;;;3.53;2.80;;;16.50;99.90;;;;;;5076530;28;20422;-35
2021/01/16 04:29:17;;;;;;;3.60;2.75;;;16.50;99.90;;;;;;5076661;28;20098;-35
2021/01/16 04:31:43;;;;;;;4.15;2.92;;;16.50;99.90;;;;;;5076225;28;20036;-35
2021/01/16 04:34:09;;;;;;;4.25;3.22;;;16.50;99.90;;;;;;5076527;28;20033;-35
2021/01/16 04:36:35;;;;;;;4.35;3.25;;;16.50;99.90;;;;;;5076099;28;20093;-35
2021/01/16 04:39:02;;;;;;;4.68;3.13;;;16.50;99.90;;;;;;5076639;28;20025;-35
2021/01/16 04:41:29;;;;;;;6.70;3.13;;;16.50;99.90;;;;;;5076145;28;20017;-35
2021/01/16 04:43:56;;;;;;;3.75;3.20;;;16.50;99.90;;;;;;5075521;28;20055;-35
2021/01/16 04:46:22;;;;;;;4.65;3.20;;;16.50;99.90;;;;;;5076120;28;20039;-35
2021/01/16 04:48:57;;;;;;;5.38;2.78;;;16.40;99.90;;;;;;5076024;28;20024;-35
2021/01/16 04:51:24;;;;;;;3.70;2.90;;;16.40;99.90;;;;;;5076127;28;20017;-35
2021/01/16 04:53:52;;;;;;;4.60;2.95;;;16.40;99.90;;;;;;5075868;28;20025;-35
2021/01/16 04:56:19;;;;;;;3.45;2.75;;;16.40;99.90;;;;;;5076174;28;20031;-35
2021/01/16 04:58:45;;;;;;;4.13;3.10;;;16.40;99.90;;;;;;5075874;28;20474;-35
2021/01/16 05:01:11;;;;;;;5.25;2.83;;;16.40;99.90;;;;;;5076100;28;20027;-36
2021/01/16 05:03:44;;;;;;;5.95;3.00;;;16.40;99.90;;;;;;5074344;28;20020;-35
2021/01/16 05:06:13;;;;;;;4.80;3.42;;;16.40;99.90;;;;;;5076197;28;20029;-35
2021/01/16 05:08:41;;;;;;;3.95;2.85;;;16.40;99.90;;;;;;5075792;28;20081;-36
2021/01/16 05:11:23;;;;;;;4.32;2.90;;;16.40;99.90;;;;;;5075043;28;20052;-36
2021/01/16 05:14:09;;;;;;;5.30;3.42;;;16.40;99.90;;;;;;5074952;28;20056;-35
2021/01/16 05:16:43;;;;;;;3.85;3.03;;;16.40;99.90;;;;;;5054517;28;20039;-36
2021/01/16 05:19:15;;;;;;;6.25;2.85;;;16.40;99.90;;;;;;5060074;28;20390;-35
2021/01/16 05:21:42;;;;;;;4.13;2.88;;;16.30;99.90;;;;;;5075630;28;20020;-35
2021/01/16 05:24:13;;;;;;;3.65;3.08;;;16.30;99.90;;;;;;5075356;28;20020;-35
2021/01/16 05:26:56;;;;;;;4.05;3.00;;;16.30;99.90;;;;;;5075490;28;20043;-35
2021/01/16 05:29:24;;;;;;;4.45;3.38;;;16.30;99.90;;;;;;5075369;28;20025;-35
2021/01/16 05:31:51;;;;;;;;;;;16.40;99.90;;;;;;5074394;28;20028;-35
2021/01/16 05:34:17;;;;;;;2.95;2.58;;;16.40;99.90;;;;;;5075116;28;20412;-35
2021/01/16 05:36:46;;;;;;;4.78;3.10;;;16.40;99.90;;;;;;5075257;28;20040;-35
2021/01/16 05:39:12;;;;;;;3.50;2.78;;;16.30;99.90;;;;;;5074659;28;20534;-35
2021/01/16 05:41:40;;;;;;;3.10;2.65;;;16.30;99.90;;;;;;5075675;28;20028;-34
2021/01/16 05:44:06;;;;;;;4.10;3.42;;;16.40;99.90;;;;;;5075147;28;20380;-34
2021/01/16 05:46:32;;;;;;;3.72;2.85;;;16.40;99.90;;;;;;5075136;28;20043;-34
2021/01/16 05:48:58;;;;;;;4.00;3.20;;;16.30;99.90;;;;;;5075105;28;20052;-37
2021/01/16 05:51:24;;;;;;;3.90;2.97;;;16.40;99.90;;;;;;5074939;28;20052;-34
2021/01/16 05:53:51;;;;;;;3.45;3.00;;;16.30;99.90;;;;;;5075073;28;20033;-34
2021/01/16 05:56:17;;;;;;;3.83;2.75;;;16.30;99.90;;;;;;5073424;28;20116;-35
2021/01/16 05:58:44;;;;;;;3.58;3.15;;;16.30;99.90;;;;;;5074923;28;20017;-34
2021/01/16 06:01:24;;;;;;;3.88;3.08;;;16.30;99.90;;;;;;5074623;28;20111;-34
2021/01/16 06:03:57;;;;;;;3.10;2.80;;;16.30;99.90;;;;;;5074990;28;20021;-34
2021/01/16 06:06:23;;;;;;;4.93;3.35;;;16.30;99.90;;;;;;5074725;28;20029;-36
2021/01/16 06:08:54;;;;;;;3.15;2.80;;;16.30;99.90;;;;;;5074925;28;20035;-35
2021/01/16 06:11:21;;;;;;;4.18;3.17;;;16.30;99.90;;;;;;5074508;28;20048;-34
2021/01/16 06:13:48;;;;;;;3.83;2.83;;;16.30;99.90;;;;;;5074274;28;20027;-35
2021/01/16 06:16:19;;;;;;;4.25;3.22;;;16.30;99.90;;;;;;5074562;28;20037;-35
2021/01/16 06:18:57;;;;;;;3.75;3.05;;;16.30;99.90;;;;;;5074280;28;20029;-35
2021/01/16 06:21:28;;;;;;;4.00;3.17;;;16.30;99.90;;;;;;5073824;28;20055;-35
2021/01/16 06:23:59;;;;;;;3.13;2.58;;;16.30;99.90;;;;;;5073278;28;20103;-36
2021/01/16 06:26:26;;;;;;;2.92;2.60;;;16.30;99.90;;;;;;5074236;28;20055;-34
2021/01/16 06:28:59;;;;;;;5.35;3.05;;;16.30;99.90;;;;;;5074005;28;20032;-35
2021/01/16 06:31:30;;;;;;;2.95;2.58;;;16.20;99.90;;;;;;5073608;28;20043;-35
2021/01/16 06:34:00;;;;;;;4.90;3.45;;;16.20;99.90;;;;;;5073894;28;20075;-35
2021/01/16 06:36:32;;;;;;;3.65;2.78;;;16.20;99.90;;;;;;5073201;28;20054;-35
2021/01/16 06:39:09;;;;;;;5.43;3.33;;;16.20;99.90;;;;;;5074324;28;20021;-36
2021/01/16 06:41:37;;;;;;;3.10;2.67;;;16.20;99.90;;;;;;5073355;28;20028;-35
2021/01/16 06:44:12;;;;;;;;;;;16.20;99.90;;;;;;5074175;28;20488;-36
2021/01/16 06:46:45;;;;;;;5.15;3.40;;;16.20;99.90;;;;;;5073682;28;19908;-36
2021/01/16 06:49:21;;;;;;;3.65;2.75;;;16.20;99.90;;;;;;5073849;28;20032;-36
2021/01/16 06:51:51;;;;;;;3.78;2.95;;;16.20;99.90;;;;;;5071463;28;20099;-36
2021/01/16 06:54:25;;;;;;;4.75;3.53;;;16.30;99.90;;;;;;5073613;28;20027;-36
2021/01/16 06:57:07;;;;;;;4.47;2.90;;;16.20;99.90;;;;;;5073513;28;20154;-36
2021/01/16 06:59:35;;;;;;;4.38;3.17;;;16.20;99.90;;;;;;5073615;28;20025;-36
2021/01/16 07:02:28;;;;;;;5.03;3.22;;;16.20;99.90;;;;;;5073600;28;20024;-36
2021/01/16 07:05:01;;;;;;;3.80;3.42;;;16.10;99.90;;;;;;5069155;28;20040;-36
2021/01/16 07:07:28;;;;;;;4.93;3.60;;;16.20;99.90;;;;;;5072734;28;20032;-36
2021/01/16 07:10:01;;;;;;;4.45;3.53;;;16.20;99.90;;;;;;5085016;28;20029;-36
2021/01/16 07:12:27;;;;;;;4.53;3.90;;;16.20;99.90;;;;;;5073058;28;20108;-36
2021/01/16 07:14:53;;;;;;;5.65;3.80;;;16.20;99.90;;;;;;5073141;28;20378;-36
2021/01/16 07:17:24;;;;;;;4.88;3.78;;;16.20;99.90;;;;;;5073150;28;20036;-36
2021/01/16 07:19:50;;;;;;;5.07;4.28;;;16.20;99.90;;;;;;5072697;28;20486;-36
2021/01/16 07:22:17;;;;;;;6.40;5.25;;;16.20;99.90;;;;;;5073389;28;20024;-36
2021/01/16 07:24:44;;;;;;;5.50;4.32;;;16.20;99.90;;;;;;5072918;28;20029;-36
2021/01/16 07:27:11;;;;;;;;;;;16.20;99.90;;;;;;5073132;28;20039;-36
2021/01/16 07:29:42;;;;;;;5.75;4.78;;;16.30;99.90;;;;;;5073145;28;19952;-36
2021/01/16 07:32:15;;;;;;;5.05;4.32;;;16.30;99.90;;;;;;5073322;28;20128;-36
2021/01/16 07:34:44;;;;;;;7.25;4.82;;;16.20;99.90;;;;;;5072303;28;20470;-36
2021/01/16 07:37:10;;;;;;;8.05;4.45;;;16.20;99.90;;;;;;5071266;28;20032;-36
2021/01/16 07:39:40;;;;;;;7.07;5.47;;;16.20;99.90;;;;;;5071347;28;20024;-36
2021/01/16 07:42:12;;;;;;;6.28;5.22;;;16.30;99.90;;;;;;5071914;28;20044;-36
2021/01/16 07:44:45;;;;;;;7.40;5.10;;;16.20;99.90;;;;;;5073124;28;20099;-36
2021/01/16 07:47:41;;;;;;;5.95;5.00;;;16.30;99.90;;;;;;5072620;28;20652;-36
2021/01/16 07:50:28;;;;;;;8.40;6.35;;;16.30;99.90;;;;;;5055754;28;20053;-36
2021/01/16 07:53:01;;;;;;;118.65;81.43;;;16.30;99.90;;;;;;5058942;28;20063;-36
2021/01/16 07:55:36;;;;;;;71.53;49.78;;;16.10;99.90;;;;;;5060683;28;20378;-36
2021/01/16 07:58:14;;;;;;;92.22;67.10;;;16.10;99.90;;;;;;5064539;28;20021;-36
2021/01/16 08:00:48;;;;;;;69.47;52.13;;;16.00;99.90;;;;;;5058277;28;20036;-36
2021/01/16 08:03:29;;;;;;;67.35;47.78;;;16.00;99.90;;;;;;5056373;28;20378;-36
2021/01/16 08:06:01;;;;;;;61.50;43.97;;;16.10;99.90;;;;;;5070623;28;20078;-36
2021/01/16 08:09:15;;;;;;;142.90;106.53;;;16.30;99.90;;;;;;5060162;28;20025;-35
2021/01/16 08:11:49;;;;;;;70.40;52.30;;;16.20;99.90;;;;;;5036221;28;20033;-37
2021/01/16 08:14:20;;;;;;;60.03;44.47;;;16.10;99.90;;;;;;5045855;28;20025;-31
2021/01/16 08:16:54;;;;;;;105.32;76.63;;;16.20;99.90;;;;;;5034459;28;20373;-33
2021/01/16 08:19:56;;;;;;;65.32;51.67;;;16.20;99.90;;;;;;5037527;28;20518;-34
2021/01/16 08:22:23;;;;;;;55.85;43.50;;;16.20;99.90;;;;;;5047484;28;20426;-33
2021/01/16 08:25:02;;;;;;;54.17;41.00;;;16.30;99.90;;;;;;5039148;28;20033;-33
2021/01/16 08:27:30;;;;;;;45.92;36.85;;;16.30;99.90;;;;;;5043085;28;20494;-28
2021/01/16 08:29:57;;;;;;;44.05;33.55;;;16.40;99.90;;;;;;5028505;28;20091;-28
2021/01/16 08:32:23;;;;;;;38.10;30.92;;;16.40;99.90;;;;;;5045150;28;20049;-28
2021/01/16 08:34:56;;;;;;;33.65;26.08;;;16.40;99.90;;;;;;5044921;28;20067;-28
2021/01/16 08:37:35;;;;;;;31.10;25.58;;;16.50;99.90;;;;;;5027635;28;20043;-29
2021/01/16 08:40:08;;;;;;;29.42;23.48;;;16.50;99.90;;;;;;5027569;28;20044;-29
2021/01/16 08:42:35;;;;;;;27.08;21.95;;;16.60;99.90;;;;;;5036324;28;20041;-28
2021/01/16 08:45:04;;;;;;;26.05;20.58;;;16.60;99.90;;;;;;5034778;28;20037;-28
2021/01/16 08:47:30;;;;;;;24.38;18.40;;;16.50;99.90;;;;;;5038177;28;20045;-28
2021/01/16 08:50:12;;;;;;;19.55;15.40;;;16.60;99.90;;;;;;5056174;28;20035;-28
2021/01/16 08:52:38;;;;;;;19.13;16.05;;;16.60;99.90;;;;;;5052933;28;20020;-28
2021/01/16 08:55:05;;;;;;;21.65;15.77;;;16.70;99.90;;;;;;5056851;28;20126;-28
2021/01/16 08:57:36;;;;;;;21.73;14.77;;;16.70;99.90;;;;;;5064783;28;20047;-28
2021/01/16 09:00:15;;;;;;;20.23;13.90;;;16.70;99.90;;;;;;5057036;28;20021;-28
2021/01/16 09:02:43;;;;;;;19.20;15.52;;;16.70;99.90;;;;;;5065680;28;20121;-28
2021/01/16 09:05:23;;;;;;;27.48;21.02;;;16.70;99.90;;;;;;5063257;28;20016;-28
2021/01/16 09:07:50;;;;;;;28.10;20.83;;;16.70;99.90;;;;;;5066219;28;20594;-28
2021/01/16 09:10:23;;;;;;;21.77;17.52;;;16.70;99.90;;;;;;5066288;28;20036;-28
2021/01/16 09:12:50;;;;;;;17.48;15.05;;;16.70;99.90;;;;;;5066192;28;20616;-28
2021/01/16 09:15:35;;;;;;;15.75;12.88;;;16.70;99.90;;;;;;5067768;28;20111;-28
2021/01/16 09:18:04;;;;;;;13.98;10.70;;;16.80;99.90;;;;;;5067111;28;20501;-27
2021/01/16 09:20:31;;;;;;;13.35;9.95;;;16.80;99.90;;;;;;5067305;28;20029;-27
2021/01/16 09:22:57;;;;;;;16.33;9.18;;;16.90;99.90;;;;;;5056654;28;20017;-27
2021/01/16 09:25:25;;;;;;;10.43;7.93;;;17.00;99.90;;;;;;5058972;28;20498;-27
2021/01/16 09:27:51;;;;;;;;;;;16.90;99.90;;;;;;5067499;28;20027;-27
2021/01/16 09:30:21;;;;;;;11.13;7.70;;;17.00;99.90;;;;;;5070879;28;19958;-27
2021/01/16 09:32:48;;;;;;;9.80;6.97;;;17.10;99.90;;;;;;5055451;28;20052;-27
2021/01/16 09:35:35;;;;;;;48.60;38.58;;;17.10;99.90;;;;;;5069359;28;20409;-27
2021/01/16 09:38:02;;;;;;;39.73;30.63;;;17.10;99.90;;;;;;5072114;28;20458;-26
2021/01/16 09:40:36;;;;;;;26.35;18.85;;;17.00;99.90;;;;;;5072479;28;20253;-26
2021/01/16 09:43:14;;;;;;;12.43;8.18;;;17.10;99.90;;;;;;5072180;28;20033;-26
2021/01/16 09:45:50;;;;;;;17.95;14.77;;;17.00;99.90;;;;;;5072100;28;20374;-27
2021/01/16 09:48:34;;;;;;;26.50;18.25;;;17.00;99.90;;;;;;5067876;28;20021;-28
2021/01/16 09:51:02;;;;;;;33.95;26.05;;;17.00;99.90;;;;;;5067770;28;20449;-26
2021/01/16 09:53:29;;;;;;;42.28;33.30;;;17.00;99.90;;;;;;5064759;28;20366;-26
2021/01/16 09:55:56;;;;;;;49.90;39.53;;;17.00;99.90;;;;;;5063977;28;20064;-26
2021/01/16 09:58:32;;;;;;;57.08;45.25;;;17.00;99.90;;;;;;5056169;28;20021;-27
2021/01/16 10:01:18;;;;;;;32.17;25.45;;;17.00;99.90;;;;;;5057984;28;20025;-27
2021/01/16 10:03:45;;;;;;;22.63;16.55;;;17.10;99.90;;;;;;5069176;28;20082;-27
2021/01/16 10:06:13;;;;;;;13.55;8.73;;;17.10;99.90;;;;;;5060151;28;20070;-27
2021/01/16 10:08:40;;;;;;;7.63;5.30;;;17.20;99.90;;;;;;5066570;28;20045;-27
2021/01/16 10:11:07;;;;;;;10.85;7.43;;;17.10;99.90;;;;;;5052160;28;20025;-27
2021/01/16 10:13:37;;;;;;;19.77;13.80;;;17.20;99.90;;;;;;5069738;28;20086;-27
2021/01/16 10:16:11;;;;;;;8.40;6.40;;;17.30;99.90;;;;;;5073462;28;20059;-27
2021/01/16 10:18:40;;;;;;;7.18;5.13;;;17.30;99.90;;;;;;5072343;28;20044;-27
2021/01/16 10:21:11;;;;;;;6.75;4.93;;;17.40;99.90;;;;;;5073611;28;20013;-27
2021/01/16 10:23:44;;;;;;;7.65;4.30;;;17.40;99.90;;;;;;5072021;28;20039;-39
2021/01/16 10:26:15;;;;;;;7.03;4.75;;;17.50;99.90;;;;;;5071217;28;20025;-39
2021/01/16 10:28:49;;;;;;;5.03;3.70;;;17.50;99.90;;;;;;5071204;28;20078;-39
2021/01/16 10:31:22;;;;;;;5.93;3.58;;;17.50;99.90;;;;;;5066280;28;20052;-40
2021/01/16 10:33:48;;;;;;;4.22;3.60;;;17.60;99.90;;;;;;5069913;28;20052;-40
2021/01/16 10:36:17;;;;;;;7.85;3.55;;;17.60;99.90;;;;;;5069063;28;20027;-40
2021/01/16 10:38:47;;;;;;;5.85;3.40;;;17.70;99.90;;;;;;5071585;28;20017;-37
2021/01/16 10:41:16;;;;;;;4.07;3.50;;;17.90;99.90;;;;;;5085796;28;20023;-40
2021/01/16 10:43:42;;;;;;;4.30;3.38;;;17.80;99.90;;;;;;5069352;28;20040;-40
2021/01/16 10:46:15;;;;;;;5.15;3.53;;;17.90;99.90;;;;;;5071628;28;20021;-40
2021/01/16 10:48:41;;;;;;;6.93;3.70;;;18.00;99.90;;;;;;5071253;28;20360;-40
2021/01/16 10:51:09;;;;;;;7.10;4.18;;;18.10;99.90;;;;;;5070662;28;20471;-38
2021/01/16 10:53:40;;;;;;;5.05;4.00;;;18.10;99.90;;;;;;5071369;28;20029;-38
2021/01/16 10:56:15;;;;;;;5.72;4.47;;;18.20;99.90;;;;;;5071219;28;20035;-38
2021/01/16 10:58:44;;;;;;;6.50;3.83;;;18.30;99.90;;;;;;5067902;28;20082;-38
2021/01/16 11:01:10;;;;;;;7.50;5.18;;;18.20;99.90;;;;;;5070844;28;20029;-38
2021/01/16 11:03:36;;;;;;;6.35;4.68;;;18.40;99.90;;;;;;5065553;28;20029;-38
2021/01/16 11:06:07;;;;;;;9.45;4.35;;;18.50;99.90;;;;;;5070716;28;20035;-38
2021/01/16 11:08:38;;;;;;;10.23;4.53;;;18.70;99.90;;;;;;5067152;28;20491;-38
2021/01/16 11:11:23;;;;;;;7.50;4.38;;;18.90;99.90;;;;;;5069482;28;20067;-39
2021/01/16 11:13:49;;;;;;;11.05;7.78;;;19.00;99.90;;;;;;5071197;28;20309;-38
2021/01/16 11:16:17;;;;;;;21.23;12.60;;;19.10;99.90;;;;;;5071578;28;20039;-39
2021/01/16 11:18:43;;;;;;;8.75;6.32;;;19.20;99.90;;;;;;5076288;28;20020;-39
2021/01/16 11:21:13;;;;;;;12.18;8.48;;;19.30;99.90;;;;;;5086691;28;20059;-38
2021/01/16 11:23:45;;;;;;;12.90;9.15;;;19.40;99.90;;;;;;5071732;28;20081;-39
2021/01/16 11:26:15;;;;;;;13.55;9.27;;;19.50;99.90;;;;;;5070894;28;20039;-39
2021/01/16 11:28:56;;;;;;;12.80;9.10;;;19.50;99.90;;;;;;5061065;28;20025;-39
2021/01/16 11:31:44;;;;;;;6.28;4.32;;;19.70;99.90;;;;;;5071109;28;20020;-40
2021/01/16 11:34:17;;;;;;;8.25;5.82;;;19.90;99.90;;;;;;5070589;28;20087;-39
2021/01/16 11:37:02;;;;;;;10.98;8.88;;;20.00;99.90;;;;;;5069680;28;20041;-39
2021/01/16 11:39:45;;;;;;;8.73;6.85;;;20.00;99.90;;;;;;5071341;28;20379;-33
2021/01/16 11:42:12;;;;;;;11.73;9.30;;;20.10;99.90;;;;;;5070449;28;20470;-32
2021/01/16 11:44:53;;;;;;;16.20;7.65;;;20.20;99.90;;;;;;5071055;28;20493;-35
2021/01/16 11:47:19;;;;;;;10.25;7.25;;;20.30;99.90;;;;;;5071056;28;20123;-34
2021/01/16 11:49:46;;;;;;;13.07;8.05;;;20.30;99.90;;;;;;5071891;28;20390;-27
2021/01/16 11:52:13;;;;;;;13.52;7.85;;;20.40;99.90;;;;;;5072248;28;20032;-27
2021/01/16 11:54:39;;;;;;;15.20;11.88;;;20.60;99.90;;;;;;5072329;28;20047;-27
2021/01/16 11:57:11;;;;;;;11.20;6.05;;;20.60;99.90;;;;;;5072178;28;20100;-26
2021/01/16 11:59:40;;;;;;;13.00;8.13;;;20.80;99.90;;;;;;5084074;28;20044;-39
2021/01/16 12:02:13;;;;;;;10.35;6.88;;;20.90;99.90;;;;;;5071386;28;20032;-26
2021/01/16 12:04:46;;;;;;;9.95;8.13;;;21.10;99.90;;;;;;5070189;28;20548;-26
2021/01/16 12:07:18;;;;;;;6.72;5.22;;;21.20;99.90;;;;;;5071243;28;20036;-26
2021/01/16 12:09:45;;;;;;;6.40;5.30;;;21.30;99.90;;;;;;5071181;28;20066;-26
2021/01/16 12:12:13;;;;;;;5.32;3.50;;;21.40;99.90;;;;;;5071232;28;20028;-27
2021/01/16 12:14:41;;;;;;;6.70;3.95;;;21.50;99.90;;;;;;5071541;28;20035;-27
2021/01/16 12:17:11;;;;;;;5.13;3.97;;;21.50;99.90;;;;;;5070251;28;20379;-26
2021/01/16 12:19:38;;;;;;;5.47;3.85;;;21.60;99.90;;;;;;5077668;28;20056;-26
2021/01/16 12:22:06;;;;;;;4.80;3.97;;;21.80;99.90;;;;;;5074811;28;20020;-26
2021/01/16 12:24:33;;;;;;;4.72;3.75;;;22.10;99.90;;;;;;5071978;28;20489;-26
2021/01/16 12:27:01;;;;;;;5.85;4.22;;;22.30;99.90;;;;;;5074095;28;20028;-26
2021/01/16 12:29:34;;;;;;;11.18;4.30;;;22.40;99.90;;;;;;5075932;28;20063;-27
2021/01/16 12:32:11;;;;;;;8.85;4.07;;;22.60;99.90;;;;;;5073769;28;20102;-27
2021/01/16 12:34:50;;;;;;;6.50;3.85;;;23.00;99.90;;;;;;5075042;28;20467;-27
2021/01/16 12:37:30;;;;;;;5.35;3.92;;;23.90;99.90;;;;;;5073919;28;20094;-27
2021/01/16 12:40:01;;;;;;;8.35;3.70;;;25.80;99.90;;;;;;5072126;28;20028;-27
2021/01/16 12:42:30;;;;;;;6.82;4.00;;;27.80;99.90;;;;;;5069509;28;20039;-26
2021/01/16 12:45:11;;;;;;;6.85;3.40;;;29.60;99.90;;;;;;5072720;28;20021;-26
2021/01/16 12:47:38;;;;;;;7.35;3.78;;;29.60;99.90;;;;;;5076197;28;20017;-28
2021/01/16 12:50:06;;;;;;;;;;;29.60;99.90;;;;;;5065383;28;20035;-28
2021/01/16 12:52:32;;;;;;;8.95;3.97;;;29.60;99.90;;;;;;5052683;28;19908;-40
2021/01/16 12:55:04;;;;;;;7.60;3.67;;;29.40;99.90;;;;;;5071433;28;20055;-39
2021/01/16 12:57:36;;;;;;;6.80;3.40;;;29.30;99.90;;;;;;5073333;28;20364;-39
2021/01/16 13:00:05;;;;;;;7.97;3.50;;;28.20;99.90;;;;;;5074305;28;20462;-41